createdAt,value
2019-05-20T00:02:23.119Z,24.37
2019-05-20T00:05:01.456Z,25.20
2019-05-20T00:07:47.785Z,26.97
2019-05-20T00:11:17.982Z,29.90
2019-05-20T00:14:08.991Z,29.67
2019-05-20T00:17:02.053Z,30.50
2019-05-20T00:20:00.584Z,26.63
2019-05-20T00:22:35.853Z,25.47
2019-05-20T00:25:24.016Z,25.30
2019-05-20T00:28:16.399Z,25.13
2019-05-20T00:31:05.054Z,22.00
2019-05-20T00:36:27.398Z,21.90
2019-05-20T00:39:42.711Z,23.20
2019-05-20T00:42:26.889Z,21.63
2019-05-20T00:45:05.366Z,23.23
2019-05-20T00:48:03.495Z,22.50
2019-05-20T00:50:46.244Z,22.83
2019-05-20T00:53:31.997Z,24.77
2019-05-20T00:56:23.578Z,24.13
2019-05-20T00:59:10.443Z,20.83
2019-05-20T01:01:51.527Z,23.23
2019-05-20T01:05:07.754Z,22.10
2019-05-20T01:07:56.364Z,23.03
2019-05-20T01:10:49.761Z,24.27
2019-05-20T01:13:31.804Z,26.30
2019-05-20T01:16:22.016Z,24.90
2019-05-20T01:19:08.290Z,25.03
2019-05-20T01:22:00.091Z,27.37
2019-05-20T01:24:43.352Z,26.60
2019-05-20T01:27:29.336Z,25.97
2019-05-20T01:30:17.321Z,24.60
2019-05-20T01:32:55.166Z,25.83
2019-05-20T01:35:46.031Z,26.37
2019-05-20T01:38:25.702Z,26.57
2019-05-20T01:41:10.919Z,24.23
2019-05-20T01:43:55.054Z,21.43
2019-05-20T01:46:58.887Z,21.00
2019-05-20T01:49:39.523Z,21.77
2019-05-20T01:52:20.780Z,22.70
2019-05-20T01:55:15.572Z,23.13
2019-05-20T01:57:59.621Z,23.63
2019-05-20T02:00:41.039Z,24.00
2019-05-20T02:03:31.872Z,23.43
2019-05-20T02:06:01.202Z,24.97
2019-05-20T02:08:52.780Z,26.10
2019-05-20T02:11:44.293Z,27.03
2019-05-20T02:14:33.741Z,27.53
2019-05-20T02:17:13.505Z,29.80
2019-05-20T02:23:23.250Z,32.20
2019-05-20T02:26:08.345Z,31.30
2019-05-20T02:28:57.594Z,34.40
2019-05-20T02:31:38.865Z,35.63
2019-05-20T02:34:18.853Z,36.23
2019-05-20T02:37:13.447Z,35.77
2019-05-20T02:40:08.419Z,33.10
2019-05-20T02:42:49.259Z,34.10
2019-05-20T02:45:39.576Z,34.37
2019-05-20T02:48:35.405Z,34.73
2019-05-20T02:51:46.310Z,34.10
2019-05-20T02:54:42.719Z,32.87
2019-05-20T02:57:25.657Z,32.20
2019-05-20T03:00:14.021Z,32.03
2019-05-20T03:03:02.625Z,32.33
2019-05-20T03:05:49.323Z,31.30
2019-05-20T03:08:28.964Z,33.20
2019-05-20T03:11:22.596Z,34.53
2019-05-20T03:13:57.363Z,31.90
2019-05-20T03:16:46.385Z,33.57
2019-05-20T03:19:31.818Z,32.00
2019-05-20T03:22:28.846Z,28.50
2019-05-20T03:25:35.598Z,30.70
2019-05-20T03:32:09.262Z,31.07
2019-05-20T03:35:16.481Z,34.80
2019-05-20T03:41:10.768Z,31.93
2019-05-20T03:44:15.005Z,29.70
2019-05-20T03:46:49.861Z,29.90
2019-05-20T03:49:40.182Z,27.97
2019-05-20T03:52:30.591Z,29.30
2019-05-20T03:55:15.399Z,25.03
2019-05-20T03:58:24.699Z,26.17
2019-05-20T04:01:16.637Z,26.73
2019-05-20T04:07:09.933Z,24.87
2019-05-20T04:10:15.371Z,23.20
2019-05-20T04:13:26.379Z,22.90
2019-05-20T04:16:45.447Z,21.77
2019-05-20T04:19:44.011Z,20.47
2019-05-20T04:22:43.419Z,29.20
2019-05-20T04:25:36.966Z,20.17
2019-05-20T04:28:15.713Z,18.07
2019-05-20T04:31:03.777Z,18.50
2019-05-20T04:33:42.515Z,18.80
2019-05-20T04:36:43.060Z,18.57
2019-05-20T04:39:36.647Z,16.27
2019-05-20T04:42:16.164Z,17.10
2019-05-20T04:44:59.902Z,17.73
2019-05-20T04:47:57.019Z,18.07
2019-05-20T04:50:41.628Z,17.17
2019-05-20T04:53:21.863Z,19.47
2019-05-20T04:56:29.377Z,17.83
2019-05-20T04:59:22.798Z,16.87
2019-05-20T05:02:30.301Z,18.00
2019-05-20T05:05:50.074Z,18.60
2019-05-20T05:08:46.371Z,18.53
2019-05-20T05:11:39.834Z,19.40
2019-05-20T05:14:34.345Z,19.30
2019-05-20T05:17:12.818Z,20.27
2019-05-20T05:19:56.663Z,19.10
2019-05-20T05:22:54.471Z,19.57
2019-05-20T05:25:51.864Z,20.93
2019-05-20T05:28:35.333Z,19.50
2019-05-20T05:31:37.760Z,19.80
2019-05-20T05:38:00.014Z,18.57
2019-05-20T05:40:51.553Z,19.50
2019-05-20T05:43:40.069Z,18.33
2019-05-20T05:46:33.314Z,18.00
2019-05-20T05:49:18.506Z,19.10
2019-05-20T05:52:14.476Z,18.33
2019-05-20T05:58:10.649Z,17.20
2019-05-20T06:01:21.823Z,17.00
2019-05-20T06:04:06.462Z,16.57
2019-05-20T06:07:16.389Z,16.70
2019-05-20T06:10:08.733Z,16.23
2019-05-20T06:13:02.782Z,18.07
2019-05-20T06:15:58.545Z,16.20
2019-05-20T06:18:59.754Z,16.23
2019-05-20T06:21:54.691Z,16.23
2019-05-20T06:24:36.068Z,15.87
2019-05-20T06:27:39.742Z,15.90
2019-05-20T06:30:22.778Z,15.30
2019-05-20T06:33:23.416Z,16.17
2019-05-20T06:36:39.275Z,14.97
2019-05-20T06:39:40.408Z,14.23
2019-05-20T06:42:53.218Z,12.93
2019-05-20T06:45:42.047Z,13.37
2019-05-20T06:48:43.347Z,12.17
2019-05-20T06:51:24.652Z,14.43
2019-05-20T06:54:30.296Z,15.20
2019-05-20T06:57:33.074Z,14.87
2019-05-20T07:00:19.492Z,13.83
2019-05-20T07:03:06.802Z,15.20
2019-05-20T07:06:19.640Z,12.93
2019-05-20T07:12:40.091Z,13.57
2019-05-20T07:15:22.876Z,13.03
2019-05-20T07:18:07.410Z,13.17
2019-05-20T07:20:58.990Z,13.27
2019-05-20T07:24:36.787Z,13.70
2019-05-20T07:29:51.163Z,12.67
2019-05-20T07:32:38.827Z,13.47
2019-05-20T07:35:29.475Z,12.70
2019-05-20T07:38:12.434Z,12.97
2019-05-20T07:41:19.200Z,11.97
2019-05-20T07:44:09.023Z,12.53
2019-05-20T07:46:59.822Z,11.97
2019-05-20T07:50:22.715Z,11.57
2019-05-20T07:53:12.043Z,11.90
2019-05-20T07:56:07.465Z,12.10
2019-05-20T07:59:10.325Z,11.90
2019-05-20T08:02:06.597Z,12.97
2019-05-20T08:05:14.134Z,14.73
2019-05-20T08:07:52.551Z,11.27
2019-05-20T08:10:31.922Z,12.10
2019-05-20T08:16:53.484Z,13.23
2019-05-20T08:19:31.842Z,13.47
2019-05-20T08:22:17.439Z,11.73
2019-05-20T08:31:29.232Z,14.27
2019-05-20T08:34:30.084Z,12.73
2019-05-20T08:37:44.830Z,13.17
2019-05-20T08:43:35.364Z,12.27
2019-05-20T08:46:17.210Z,11.77
2019-05-20T08:49:24.796Z,11.10
2019-05-20T08:52:17.759Z,11.40
2019-05-20T08:55:12.056Z,11.67
2019-05-20T08:57:54.976Z,12.23
2019-05-20T09:00:46.979Z,11.63
2019-05-20T09:03:36.514Z,10.70
2019-05-20T09:06:31.526Z,12.10
2019-05-20T09:09:16.007Z,13.37
2019-05-20T09:12:12.439Z,14.23
2019-05-20T09:14:55.951Z,14.43
2019-05-20T09:17:46.635Z,14.13
2019-05-20T09:20:46.432Z,12.50
2019-05-20T09:23:32.290Z,11.93
2019-05-20T09:26:20.875Z,11.70
2019-05-20T09:29:11.072Z,12.30
2019-05-20T09:32:04.711Z,11.70
2019-05-20T09:34:59.645Z,11.23
2019-05-20T09:38:24.307Z,10.33
2019-05-20T09:41:40.757Z,9.63
2019-05-20T09:44:33.852Z,10.20
2019-05-20T09:47:37.255Z,9.53
2019-05-20T09:53:58.538Z,10.38
2019-05-20T09:56:57.860Z,8.50
2019-05-20T10:00:14.143Z,10.63
2019-05-20T10:03:11.295Z,10.90
2019-05-20T10:06:14.558Z,10.67
2019-05-20T10:09:07.302Z,10.93
2019-05-20T10:11:52.689Z,11.10
2019-05-20T10:14:37.032Z,11.67
2019-05-20T10:17:46.514Z,11.63
2019-05-20T10:20:27.829Z,11.27
2019-05-20T10:23:41.349Z,10.17
2019-05-20T10:26:47.469Z,10.17
2019-05-20T10:29:44.663Z,9.53
2019-05-20T10:32:44.611Z,9.77
2019-05-20T10:35:26.831Z,8.63
2019-05-20T10:44:44.130Z,6.60
2019-05-20T10:47:49.173Z,5.90
2019-05-20T10:51:38.714Z,6.30
2019-05-20T10:53:47.759Z,7.40
2019-05-20T10:56:51.376Z,6.23
2019-05-20T10:59:31.961Z,6.73
2019-05-20T11:02:30.986Z,8.53
2019-05-20T11:05:12.170Z,7.60
2019-05-20T11:08:02.725Z,7.83
2019-05-20T11:10:58.578Z,7.87
2019-05-20T11:14:02.107Z,7.93
2019-05-20T11:16:39.297Z,8.37
2019-05-20T11:22:34.550Z,7.72
2019-05-20T11:25:21.495Z,7.70
2019-05-20T11:31:00.099Z,7.00
2019-05-20T11:33:29.703Z,7.40
2019-05-20T11:35:59.498Z,7.85
2019-05-20T11:38:29.582Z,8.00
2019-05-20T11:40:59.347Z,7.37
2019-05-20T11:43:29.146Z,7.90
2019-05-20T11:45:59.027Z,7.60
2019-05-20T11:48:28.879Z,7.92
2019-05-20T11:50:58.777Z,7.25
2019-05-20T11:53:28.729Z,7.35
2019-05-20T11:55:58.608Z,7.00
2019-05-20T11:58:28.441Z,7.03
2019-05-20T12:00:58.670Z,6.22
2019-05-20T12:03:28.554Z,4.90
2019-05-20T12:05:58.230Z,4.22
2019-05-20T12:08:28.135Z,3.87
2019-05-20T12:10:57.952Z,3.83
2019-05-20T12:13:27.832Z,4.33
2019-05-20T12:15:57.746Z,4.47
2019-05-20T12:18:27.684Z,3.85
2019-05-20T12:20:57.568Z,4.22
2019-05-20T12:23:27.285Z,3.83
2019-05-20T12:25:56.959Z,3.98
2019-05-20T12:28:27.033Z,3.83
2019-05-20T12:30:56.828Z,3.90
2019-05-20T12:33:26.609Z,3.47
2019-05-20T12:35:56.289Z,3.72
2019-05-20T12:38:25.984Z,3.47
2019-05-20T12:40:55.945Z,3.80
2019-05-20T12:43:25.796Z,3.53
2019-05-20T12:45:55.419Z,3.50
2019-05-20T12:48:25.412Z,3.87
2019-05-20T12:50:55.260Z,3.50
2019-05-20T12:53:25.069Z,2.73
2019-05-20T12:55:55.033Z,3.23
2019-05-20T12:58:25.032Z,5.40
2019-05-20T13:00:54.736Z,2.80
2019-05-20T13:03:25.908Z,4.12
2019-05-20T13:05:55.676Z,4.25
2019-05-20T13:08:25.489Z,3.83
2019-05-20T13:10:56.565Z,5.47
2019-05-20T13:13:26.446Z,14.50
2019-05-20T13:15:56.355Z,5.85
2019-05-20T13:18:26.412Z,5.55
2019-05-20T13:20:56.273Z,18.23
2019-05-20T13:23:26.116Z,3.70
2019-05-20T13:25:55.986Z,8.00
2019-05-20T13:28:26.015Z,4.63
2019-05-20T13:30:55.989Z,8.23
2019-05-20T13:33:25.803Z,7.12
2019-05-20T13:35:56.982Z,15.72
2019-05-20T13:38:26.850Z,4.95
2019-05-20T13:40:56.765Z,6.50
2019-05-20T13:43:26.644Z,4.10
2019-05-20T13:45:56.517Z,4.70
2019-05-20T13:48:26.330Z,5.17
2019-05-20T13:50:56.680Z,4.25
2019-05-20T13:53:26.582Z,6.97
2019-05-20T13:55:56.371Z,3.80
2019-05-20T13:58:25.926Z,3.37
2019-05-20T14:00:55.713Z,2.98
2019-05-20T14:03:25.498Z,3.92
2019-05-20T14:05:55.490Z,4.10
2019-05-20T14:08:25.230Z,4.00
2019-05-20T14:11:04.462Z,3.37
2019-05-20T14:13:26.549Z,3.98
2019-05-20T14:15:56.315Z,4.67
2019-05-20T14:18:26.150Z,3.85
2019-05-20T14:20:57.323Z,4.92
2019-05-20T14:23:27.195Z,7.40
2019-05-20T14:25:57.052Z,10.32
2019-05-20T14:28:26.871Z,2.52
2019-05-20T14:30:56.768Z,3.45
2019-05-20T14:33:26.717Z,3.62
2019-05-20T14:35:56.574Z,3.22
2019-05-20T14:38:26.590Z,2.87
2019-05-20T14:40:56.466Z,2.40
2019-05-20T14:43:26.329Z,3.20
2019-05-20T14:45:56.006Z,3.85
2019-05-20T14:48:25.789Z,3.25
2019-05-20T14:50:55.799Z,3.60
2019-05-20T14:53:25.597Z,2.92
2019-05-20T14:55:55.539Z,2.92
2019-05-20T14:58:25.420Z,2.90
2019-05-20T15:00:55.331Z,2.55
2019-05-20T15:03:25.238Z,3.40
2019-05-20T15:05:54.890Z,2.85
2019-05-20T15:08:24.960Z,3.20
2019-05-20T15:10:54.947Z,3.52
2019-05-20T15:13:24.817Z,3.25
2019-05-20T15:15:54.627Z,3.30
2019-05-20T15:18:24.713Z,3.10
2019-05-20T15:20:54.281Z,3.33
2019-05-20T15:23:24.116Z,3.85
2019-05-20T15:25:55.346Z,3.62
2019-05-20T15:28:25.264Z,2.90
2019-05-20T15:30:55.431Z,3.20
2019-05-20T15:33:25.301Z,3.12
2019-05-20T15:35:55.275Z,3.55
2019-05-20T15:38:25.144Z,3.75
2019-05-20T15:40:55.062Z,3.98
2019-05-20T15:43:24.996Z,7.47
2019-05-20T15:45:54.885Z,4.25
2019-05-20T15:48:25.652Z,4.08
2019-05-20T15:50:55.422Z,4.13
2019-05-20T15:53:25.359Z,8.30
2019-05-20T15:55:55.200Z,11.68
2019-05-20T15:58:25.086Z,4.25
2019-05-20T16:00:54.871Z,5.95
2019-05-20T16:03:24.765Z,3.90
2019-05-20T16:05:54.629Z,4.63
2019-05-20T16:08:24.749Z,4.47
2019-05-20T16:10:54.614Z,7.12
2019-05-20T16:13:24.358Z,7.85
2019-05-20T16:15:54.231Z,40.35
2019-05-20T16:18:24.015Z,7.07
2019-05-20T16:20:53.933Z,12.78
2019-05-20T16:23:24.110Z,13.30
2019-05-20T16:25:54.075Z,33.70
2019-05-20T16:28:23.859Z,18.92
2019-05-20T16:30:53.638Z,6.57
2019-05-20T16:33:23.312Z,80.32
2019-05-20T16:35:52.996Z,4.17
2019-05-20T16:38:22.934Z,4.35
2019-05-20T16:40:52.840Z,6.97
2019-05-20T16:43:22.650Z,4.23
2019-05-20T16:45:52.410Z,4.17
2019-05-20T16:48:22.300Z,4.70
2019-05-20T16:50:52.120Z,6.15
2019-05-20T16:53:21.862Z,40.40
2019-05-20T16:55:52.867Z,11.67
2019-05-20T16:58:22.846Z,3.13
2019-05-20T17:00:52.704Z,2.97
2019-05-20T17:03:22.524Z,3.40
2019-05-20T17:05:52.491Z,5.43
2019-05-20T17:08:22.329Z,6.57
2019-05-20T17:10:52.348Z,8.43
2019-05-20T17:13:22.218Z,6.17
2019-05-20T17:15:52.024Z,6.70
2019-05-20T17:18:21.823Z,3.20
2019-05-20T17:20:51.928Z,4.03
2019-05-20T17:23:21.745Z,2.90
2019-05-20T17:25:51.719Z,3.30
2019-05-20T17:28:21.579Z,3.33
2019-05-20T17:30:51.504Z,3.13
2019-05-20T17:33:21.494Z,3.27
2019-05-20T17:35:51.368Z,2.90
2019-05-20T17:38:21.169Z,3.63
2019-05-20T17:40:51.097Z,3.63
2019-05-20T17:43:20.985Z,7.27
2019-05-20T17:45:50.898Z,5.60
2019-05-20T17:48:21.958Z,5.27
2019-05-20T17:50:52.196Z,3.83
2019-05-20T17:53:21.887Z,3.43
2019-05-20T17:55:52.052Z,3.80
2019-05-20T17:58:21.913Z,3.57
2019-05-20T18:00:51.856Z,3.30
2019-05-20T18:03:22.012Z,5.33
2019-05-20T18:05:51.752Z,3.07
2019-05-20T18:08:24.576Z,3.83
2019-05-20T18:10:54.572Z,3.17
2019-05-20T18:13:24.384Z,3.47
2019-05-20T18:15:54.311Z,3.13
2019-05-20T18:18:25.178Z,3.00
2019-05-20T18:20:56.585Z,3.40
2019-05-20T18:23:26.739Z,3.63
2019-05-20T18:25:57.786Z,3.53
2019-05-20T18:28:27.687Z,2.80
2019-05-20T18:30:57.661Z,3.40
2019-05-20T18:33:27.421Z,4.67
2019-05-20T18:35:57.223Z,5.70
2019-05-20T18:38:27.030Z,7.73
2019-05-20T18:40:56.744Z,5.07
2019-05-20T18:43:26.612Z,3.50
2019-05-20T18:45:56.480Z,3.40
2019-05-20T18:48:26.499Z,4.00
2019-05-20T18:50:57.570Z,3.27
2019-05-20T18:53:27.356Z,5.73
2019-05-20T18:55:57.221Z,5.47
2019-05-20T18:58:28.023Z,5.57
2019-05-20T19:00:57.762Z,4.20
2019-05-20T19:03:28.478Z,3.73
2019-05-20T19:05:58.687Z,3.80
2019-05-20T19:08:28.532Z,3.10
2019-05-20T19:10:58.733Z,3.70
2019-05-20T19:13:28.535Z,3.33
2019-05-20T19:15:58.401Z,3.90
2019-05-20T19:18:28.261Z,3.33
2019-05-20T19:20:58.181Z,3.37
2019-05-20T19:23:29.135Z,3.60
2019-05-20T19:25:59.043Z,3.37
2019-05-20T19:28:29.074Z,3.37
2019-05-20T19:30:58.974Z,4.00
2019-05-20T19:33:28.776Z,3.70
2019-05-20T19:35:58.643Z,3.53
2019-05-20T19:38:32.839Z,4.00
2019-05-20T19:40:59.863Z,3.33
2019-05-20T19:43:29.756Z,3.93
2019-05-20T19:45:59.597Z,3.70
2019-05-20T19:48:29.355Z,4.03
2019-05-20T19:50:59.266Z,3.73
2019-05-20T19:53:29.038Z,3.57
2019-05-20T19:55:58.879Z,3.23
2019-05-20T19:58:28.825Z,3.27
2019-05-20T20:00:58.695Z,2.73
2019-05-20T20:03:28.627Z,3.50
2019-05-20T20:05:58.800Z,3.90
2019-05-20T20:08:28.771Z,3.57
2019-05-20T20:10:58.659Z,3.70
2019-05-20T20:13:28.651Z,3.40
2019-05-20T20:15:58.401Z,13.10
2019-05-20T20:18:28.435Z,12.17
2019-05-20T20:20:58.317Z,12.93
2019-05-20T20:23:28.046Z,15.40
2019-05-20T20:25:57.938Z,21.07
2019-05-20T20:28:27.692Z,15.53
2019-05-20T20:30:57.516Z,11.47
2019-05-20T20:33:27.485Z,7.10
2019-05-20T20:35:58.629Z,9.20
2019-05-20T20:38:28.384Z,8.90
2019-05-20T20:40:58.337Z,7.80
2019-05-20T20:43:31.982Z,7.90
2019-05-20T20:46:00.200Z,7.80
2019-05-20T20:48:30.003Z,6.20
2019-05-20T20:50:59.699Z,4.53
2019-05-20T20:53:29.548Z,8.53
2019-05-20T20:55:59.223Z,6.17
2019-05-20T20:58:29.039Z,5.37
2019-05-20T21:00:59.003Z,5.80
2019-05-20T21:03:28.866Z,10.10
2019-05-20T21:05:58.804Z,8.67
2019-05-20T21:08:28.628Z,11.17
2019-05-20T21:10:58.531Z,9.07
2019-05-20T21:13:28.764Z,7.57
2019-05-20T21:15:58.730Z,9.87
2019-05-20T21:18:30.916Z,8.10
2019-05-20T21:21:00.645Z,10.03
2019-05-20T21:23:30.525Z,8.87
2019-05-20T21:26:00.393Z,8.20
2019-05-20T21:28:30.406Z,4.50
2019-05-20T21:31:00.319Z,5.13
2019-05-20T21:33:30.153Z,4.53
2019-05-20T21:36:00.083Z,7.30
2019-05-20T21:38:29.984Z,6.80
2019-05-20T21:40:59.758Z,5.33
2019-05-20T21:43:29.608Z,5.83
2019-05-20T21:45:59.517Z,7.00
2019-05-20T21:48:29.552Z,7.80
2019-05-20T21:50:59.356Z,7.93
2019-05-20T21:53:30.512Z,8.20
2019-05-20T21:56:00.408Z,7.83
2019-05-20T21:58:30.338Z,7.50
2019-05-20T22:01:00.535Z,8.23
2019-05-20T22:03:30.263Z,7.20
2019-05-20T22:06:00.070Z,7.30
2019-05-20T22:08:29.918Z,6.63
2019-05-20T22:10:59.616Z,6.80
2019-05-20T22:13:29.404Z,6.13
2019-05-20T22:15:59.434Z,5.57
2019-05-20T22:18:29.245Z,5.60
2019-05-20T22:21:00.414Z,5.80
2019-05-20T22:23:49.088Z,5.97
2019-05-20T22:26:18.798Z,5.97
2019-05-20T22:28:48.693Z,5.50
2019-05-20T22:31:18.604Z,5.57
2019-05-20T22:33:48.464Z,4.80
2019-05-20T22:36:18.336Z,6.00
2019-05-20T22:38:48.258Z,6.50
2019-05-20T22:41:18.287Z,7.03
2019-05-20T22:43:48.101Z,6.37
2019-05-20T22:46:17.987Z,6.03
2019-05-20T22:48:47.960Z,5.87
2019-05-20T22:51:17.816Z,5.20
2019-05-20T22:53:47.436Z,5.70
2019-05-20T22:56:18.513Z,4.27
2019-05-20T22:58:48.204Z,5.20
2019-05-20T23:01:18.096Z,5.10
2019-05-20T23:03:56.375Z,5.77
2019-05-20T23:06:20.287Z,5.07
2019-05-20T23:08:50.132Z,6.00
2019-05-20T23:11:20.093Z,5.10
2019-05-20T23:13:49.940Z,5.37
2019-05-20T23:16:19.860Z,5.47
2019-05-20T23:18:49.844Z,4.87
2019-05-20T23:21:19.750Z,4.80
2019-05-20T23:23:49.665Z,6.63
2019-05-20T23:26:19.577Z,10.00
2019-05-20T23:28:49.449Z,12.80
2019-05-20T23:31:19.387Z,11.80
2019-05-20T23:33:49.222Z,8.50
2019-05-20T23:36:18.882Z,6.63
2019-05-20T23:38:48.781Z,6.00
2019-05-20T23:41:19.008Z,4.97
2019-05-20T23:43:49.440Z,5.17
2019-05-20T23:46:19.340Z,4.70
2019-05-20T23:48:49.308Z,4.53
2019-05-20T23:51:19.340Z,4.20
2019-05-20T23:53:49.161Z,4.63
2019-05-20T23:56:18.968Z,5.70
2019-05-20T23:58:48.853Z,5.57
